Time;durP1;ratioP1;P1;durP2;ratioP2;P2;SDS_P1;SDS_P2;PMS_P1;PMS_P2;Temp;Humidity;BMP_temperature;BMP_pressure;BME280_temperature;BME280_humidity;BME280_pressure;Samples;Min_cycle;Max_cycle;Signal;HPM_P1;HPM_P2
2022/06/04 00:00:59;;;;;;;28.73;15.75;;;;;;;17.11;100.00;100520.58;1746208;82;21205;-81
2022/06/04 00:04:00;;;;;;;25.12;16.17;;;;;;;17.07;100.00;100503.27;1744831;82;21329;-81
2022/06/04 00:06:52;;;;;;;24.75;17.25;;;;;;;17.04;100.00;100507.32;1745909;82;21782;-81
2022/06/04 00:16:46;;;;;;;22.80;16.90;;;;;;;16.96;100.00;100503.92;1745452;82;21226;-81
2022/06/04 00:19:52;;;;;;;24.15;18.12;;;;;;;16.91;100.00;100499.03;1745457;82;21263;-81
2022/06/04 00:23:00;;;;;;;23.55;16.87;;;;;;;16.89;100.00;100502.55;1745424;82;21246;-81
2022/06/04 00:26:13;;;;;;;22.90;15.38;;;;;;;16.87;100.00;100500.52;1661603;86;21244;-81
2022/06/04 00:29:13;;;;;;;22.65;16.30;;;;;;;16.84;100.00;100504.57;1684325;85;21177;-81
2022/06/04 00:32:19;;;;;;;23.98;17.07;;;;;;;16.81;100.00;100493.94;1683228;85;21209;-81
2022/06/04 00:35:26;;;;;;;21.30;15.98;;;;;;;16.78;100.00;100488.83;1681688;85;21216;-81
2022/06/04 00:38:33;;;;;;;27.93;15.58;;;;;;;16.75;100.00;100487.02;1693732;83;21291;-81
2022/06/04 00:41:49;;;;;;;20.68;14.63;;;;;;;16.73;100.00;100487.77;1710336;83;21248;-81
2022/06/04 00:45:38;;;;;;;26.77;16.23;;;;;;;16.72;100.00;100484.70;1710545;83;21204;-81
2022/06/04 00:48:44;;;;;;;22.27;16.65;;;;;;;16.70;100.00;100481.25;1711596;83;21213;-81
2022/06/04 00:51:53;;;;;;;21.93;15.05;;;;;;;16.68;100.00;100481.47;1711740;83;21197;-81
2022/06/04 00:55:00;;;;;;;21.87;16.00;;;;;;;16.66;100.00;100487.75;1682029;85;21815;-81
2022/06/04 00:58:18;;;;;;;20.12;15.58;;;;;;;16.65;100.00;100485.17;1708382;84;21288;-81
2022/06/04 01:01:34;;;;;;;22.30;16.27;;;;;;;16.62;100.00;100485.09;1683121;85;21759;-81
2022/06/04 01:04:59;;;;;;;25.25;15.50;;;;;;;16.60;100.00;100478.38;1707471;84;21248;-81
2022/06/04 01:08:35;;;;;;;21.20;14.63;;;;;;;16.58;100.00;100487.41;1683296;85;21314;-81
2022/06/04 01:12:09;;;;;;;19.37;15.30;;;;;;;16.56;100.00;100493.69;1708619;84;21206;-81
2022/06/04 01:15:39;;;;;;;18.25;14.70;;;;;;;16.55;100.00;100486.98;1707161;84;21230;-80
2022/06/04 01:18:56;;;;;;;21.02;12.35;;;;;;;16.54;100.00;100490.81;1708105;84;21811;-81
2022/06/04 01:22:14;;;;;;;19.95;13.80;;;;;;;16.52;100.00;100486.05;1707093;84;21262;-81
2022/06/04 01:25:24;;;;;;;16.67;12.03;;;;;;;16.48;100.00;100485.60;1712142;83;21797;-81
2022/06/04 01:28:29;;;;;;;16.20;13.08;;;;;;;16.46;100.00;100485.48;1745968;81;21268;-81
2022/06/04 01:31:40;;;;;;;21.85;13.95;;;;;;;16.43;100.00;100476.27;1641271;86;21149;-81
2022/06/04 01:34:52;;;;;;;20.25;13.13;;;;;;;16.38;100.00;100472.75;1690654;85;21209;-80
2022/06/04 01:38:08;;;;;;;24.52;14.15;;;;;;;16.35;100.00;100469.86;1693526;83;21899;-81
2022/06/04 01:41:24;;;;;;;16.17;13.50;;;;;;;16.33;100.00;100469.77;1690189;85;21271;-81
2022/06/04 01:44:40;;;;;;;22.02;14.23;;;;;;;16.30;100.00;100466.05;1672381;83;21208;-81
2022/06/04 01:47:46;;;;;;;17.65;13.45;;;;;;;16.27;100.00;100460.93;1689855;85;21208;-81
2022/06/04 01:51:03;;;;;;;21.33;13.38;;;;;;;16.25;100.00;100464.44;1690719;85;21233;-81
2022/06/04 01:54:14;;;;;;;16.60;13.05;;;;;;;16.23;100.00;100466.55;1696456;83;21173;-81
2022/06/04 01:57:27;;;;;;;14.15;11.97;;;;;;;16.22;100.00;100460.71;1696178;83;21225;-81
2022/06/04 02:00:45;;;;;;;18.37;12.85;;;;;;;16.25;100.00;100458.39;1690236;83;21256;-81
2022/06/04 02:03:59;;;;;;;17.73;13.40;;;;;;;16.37;100.00;100458.61;1695141;83;21211;-81
2022/06/04 02:07:32;;;;;;;21.85;12.90;;;;;;;16.55;100.00;100457.98;1701120;83;21253;-81
2022/06/04 02:10:44;;;;;;;21.40;11.80;;;;;;;16.76;100.00;100456.98;1693056;84;21228;-81
2022/06/04 02:13:52;;;;;;;15.80;11.60;;;;;;;17.00;100.00;100452.70;1720640;83;21208;-81
2022/06/04 02:17:04;;;;;;;16.93;11.55;;;;;;;17.21;100.00;100462.64;1719428;83;21224;-81
2022/06/04 02:20:09;;;;;;;15.45;10.35;;;;;;;17.45;100.00;100466.07;1719867;83;21209;-81
2022/06/04 02:23:15;;;;;;;15.13;9.60;;;;;;;17.67;100.00;100464.41;1711445;83;21262;-81
2022/06/04 02:26:22;;;;;;;17.48;9.68;;;;;;;17.89;99.84;100460.30;1695401;83;21214;-81
2022/06/04 02:29:28;;;;;;;9.75;7.97;;;;;;;18.10;97.71;100462.72;1711553;82;21189;-81
2022/06/04 02:33:04;;;;;;;10.63;7.58;;;;;;;18.38;95.23;100455.95;1722596;82;21288;-81
2022/06/04 02:36:13;;;;;;;10.38;7.87;;;;;;;18.59;93.07;100463.90;1797486;79;21197;-81
2022/06/04 02:39:29;;;;;;;9.93;7.83;;;;;;;18.88;90.59;100478.18;1800640;79;21792;-81
2022/06/04 02:43:04;;;;;;;9.28;7.65;;;;;;;19.15;88.69;100475.48;1780895;79;21169;-82
2022/06/04 02:46:27;;;;;;;10.70;6.55;;;;;;;19.34;86.60;100465.25;1767869;81;21181;-83
2022/06/04 02:49:39;;;;;;;10.23;7.15;;;;;;;19.43;85.25;100469.08;1770529;81;21721;-83
2022/06/04 02:52:45;;;;;;;8.85;6.33;;;;;;;19.58;84.21;100474.58;1772162;79;21585;-83
2022/06/04 02:56:01;;;;;;;12.00;5.45;;;;;;;19.80;82.90;100465.79;1768776;81;21180;-83
2022/06/04 02:59:10;;;;;;;9.18;5.60;;;;;;;19.98;81.17;100456.05;1769653;81;21771;-83
2022/06/04 03:02:16;;;;;;;6.10;4.93;;;;;;;20.16;80.38;100446.28;1793118;79;21259;-82
2022/06/04 03:05:27;;;;;;;6.78;5.10;;;;;;;20.43;78.86;100444.50;1800323;79;21276;-82
2022/06/04 03:08:40;;;;;;;6.42;5.30;;;;;;;20.62;77.22;100439.20;1779291;79;21193;-83
2022/06/04 03:11:53;;;;;;;12.18;5.50;;;;;;;20.85;75.77;100449.50;1769629;81;21235;-83
2022/06/04 03:15:00;;;;;;;6.10;4.85;;;;;;;21.00;74.48;100456.52;1769517;81;21792;-83
2022/06/04 03:18:05;;;;;;;5.60;4.75;;;;;;;21.01;74.05;100438.73;1768400;81;21253;-82
2022/06/04 03:21:11;;;;;;;11.88;5.60;;;;;;;20.94;73.50;100440.27;1773507;79;21407;-82
2022/06/04 03:24:18;;;;;;;7.12;5.17;;;;;;;20.84;73.98;100445.03;1769458;81;21735;-83
2022/06/04 03:27:18;;;;;;;11.45;4.92;;;;;;;20.88;73.44;100445.38;1767990;80;21252;-83
2022/06/04 03:30:26;;;;;;;5.05;4.42;;;;;;;20.84;73.50;100445.03;1774911;79;21177;-83
2022/06/04 03:33:34;;;;;;;;;;;;;;;20.85;73.95;100444.48;1801205;79;21268;-83
2022/06/04 03:36:40;;;;;;;9.78;4.80;;;;;;;21.00;73.38;100439.28;1790924;79;20208;-83
2022/06/04 03:39:46;;;;;;;11.10;4.87;;;;;;;21.08;72.50;100445.88;1800862;79;21212;-83
2022/06/04 03:42:52;;;;;;;10.72;4.60;;;;;;;21.08;72.37;100443.09;1798733;79;21192;-82
2022/06/04 03:45:50;;;;;;;;;;;;;;;21.07;72.48;100438.59;1791050;79;21221;-83
2022/06/04 03:48:56;;;;;;;9.25;4.50;;;;;;;21.07;72.63;100444.16;1769002;79;20202;-82
2022/06/04 03:52:03;;;;;;;6.95;4.55;;;;;;;20.98;72.98;100446.16;1769113;79;21805;-83
2022/06/04 03:55:09;;;;;;;6.33;4.40;;;;;;;20.91;73.29;100439.34;1769203;81;21766;-81
2022/06/04 03:58:15;;;;;;;6.40;4.35;;;;;;;20.87;73.52;100442.30;1780799;79;21224;-82
2022/06/04 04:01:23;;;;;;;11.60;5.03;;;;;;;20.92;73.89;100446.59;1782814;79;21170;-81
2022/06/04 04:04:28;;;;;;;6.87;4.17;;;;;;;21.00;73.56;100446.78;1768082;81;21756;-82
2022/06/04 04:07:36;;;;;;;6.92;5.15;;;;;;;21.01;73.37;100442.36;1779376;79;21170;-81
2022/06/04 04:10:35;;;;;;;9.28;5.35;;;;;;;20.96;73.83;100445.02;1787935;79;21204;-81
2022/06/04 04:13:40;;;;;;;10.95;4.75;;;;;;;20.92;73.67;100445.20;1763672;81;21184;-82
2022/06/04 04:16:48;;;;;;;8.18;4.85;;;;;;;20.88;74.27;100435.64;1704381;83;21776;-81
2022/06/04 04:19:53;;;;;;;11.75;4.22;;;;;;;20.85;74.56;100430.59;1784731;79;21251;-82
2022/06/04 04:22:58;;;;;;;7.30;5.08;;;;;;;20.92;75.05;100439.64;1769000;79;21216;-82
2022/06/04 04:26:03;;;;;;;8.85;3.83;;;;;;;20.96;74.52;100434.45;1769311;79;21225;-82
2022/06/04 04:29:10;;;;;;;12.88;4.90;;;;;;;20.96;74.95;100440.01;1770700;79;21235;-82
2022/06/04 04:32:15;;;;;;;17.70;4.67;;;;;;;21.05;74.60;100435.78;1777863;79;21180;-82
2022/06/04 04:35:25;;;;;;;8.30;5.25;;;;;;;21.11;74.23;100433.41;1777288;80;21227;-82
2022/06/04 04:38:30;;;;;;;6.47;4.60;;;;;;;21.09;74.41;100426.70;1777255;80;21244;-81
2022/06/04 04:41:36;;;;;;;7.53;4.50;;;;;;;21.17;74.65;100424.95;1776253;80;21263;-81
2022/06/04 04:44:42;;;;;;;8.30;4.28;;;;;;;21.28;73.79;100422.40;1777482;80;21236;-82
2022/06/04 04:47:49;;;;;;;5.05;3.77;;;;;;;21.28;73.59;100424.63;1789444;80;21220;-82
2022/06/04 04:50:56;;;;;;;9.58;3.98;;;;;;;21.32;73.89;100420.86;1791875;80;21757;-82
2022/06/04 04:54:01;;;;;;;3.83;3.45;;;;;;;21.42;73.56;100425.25;1777736;79;21255;-82
2022/06/04 04:57:07;;;;;;;7.17;4.03;;;;;;;21.56;72.93;100428.06;1776033;80;21188;-82
2022/06/04 05:00:15;;;;;;;7.97;4.08;;;;;;;21.67;72.72;100429.95;1775927;80;21732;-82
2022/06/04 05:03:20;;;;;;;10.30;5.22;;;;;;;21.79;73.07;100420.19;1778187;80;21164;-82
2022/06/04 05:06:27;;;;;;;7.90;4.25;;;;;;;22.01;72.07;100419.48;1776579;80;21192;-82
2022/06/04 05:09:32;;;;;;;5.83;4.17;;;;;;;22.11;70.86;100415.00;1777320;80;21212;-82
2022/06/04 05:12:38;;;;;;;7.33;4.22;;;;;;;22.12;70.74;100423.65;1795704;80;21208;-82
2022/06/04 05:15:45;;;;;;;7.67;3.87;;;;;;;22.14;70.59;100421.45;1781699;79;21212;-82
2022/06/04 05:18:52;;;;;;;9.48;4.03;;;;;;;22.17;70.87;100414.00;1805090;79;21236;-82
2022/06/04 05:21:52;;;;;;;5.53;4.10;;;;;;;22.17;70.85;100416.78;1791012;79;21894;-82
2022/06/04 05:24:44;;;;;;;9.03;3.95;;;;;;;22.17;70.66;100412.60;1728762;81;21531;-82
2022/06/04 05:27:30;;;;;;;9.35;4.00;;;;;;;22.24;70.61;100415.22;1753195;81;21550;-82
2022/06/04 05:30:24;;;;;;;6.80;3.83;;;;;;;22.32;71.40;100408.41;1735836;82;21529;-82
2022/06/04 05:33:30;;;;;;;8.08;4.53;;;;;;;22.40;70.73;100409.39;1740660;82;21216;-82
2022/06/04 05:36:43;;;;;;;8.78;4.12;;;;;;;22.45;70.18;100420.63;1740432;82;21819;-82
2022/06/04 05:39:49;;;;;;;7.33;3.58;;;;;;;22.52;70.13;100419.89;1715737;81;21252;-82
2022/06/04 05:42:56;;;;;;;4.75;3.75;;;;;;;22.59;70.39;100424.77;1728177;81;21687;-82
2022/06/04 05:46:09;;;;;;;8.00;4.58;;;;;;;22.68;69.45;100410.70;1718286;82;21835;-82
2022/06/04 05:49:16;;;;;;;6.65;3.55;;;;;;;22.67;69.75;100423.48;1723361;82;21180;-81
2022/06/04 05:52:21;;;;;;;13.40;3.72;;;;;;;22.79;69.73;100427.05;1729922;81;21724;-82
2022/06/04 05:55:26;;;;;;;5.30;3.77;;;;;;;22.91;68.98;100420.87;1723206;82;21197;-82
2022/06/04 05:58:31;;;;;;;8.28;3.40;;;;;;;22.93;68.70;100424.78;1725335;81;21223;-82
2022/06/04 06:01:38;;;;;;;7.25;3.83;;;;;;;22.92;69.07;100420.31;1735334;82;21824;-82
2022/06/04 06:04:43;;;;;;;7.05;3.83;;;;;;;22.86;69.25;100411.52;1750173;80;21181;-81
2022/06/04 06:07:50;;;;;;;5.17;3.60;;;;;;;22.82;69.64;100417.31;1706589;82;21208;-81
2022/06/04 06:10:58;;;;;;;6.60;4.08;;;;;;;22.83;69.72;100410.66;1711493;84;21805;-81
2022/06/04 06:14:02;;;;;;;7.05;4.15;;;;;;;22.90;69.59;100414.13;1743665;80;21275;-82
2022/06/04 06:17:09;;;;;;;12.58;3.45;;;;;;;22.92;69.22;100409.16;1721602;82;21217;-82
2022/06/04 06:20:17;;;;;;;4.70;3.35;;;;;;;22.94;69.77;100402.77;1736957;81;21205;-82
2022/06/04 06:23:23;;;;;;;9.15;3.85;;;;;;;23.02;69.23;100396.75;1740832;81;21719;-82
2022/06/04 06:26:33;;;;;;;6.90;3.52;;;;;;;23.09;69.19;100402.14;1722028;82;21768;-82
2022/06/04 06:29:40;;;;;;;6.60;3.12;;;;;;;23.18;70.09;100398.66;1735192;82;21201;-82
2022/06/04 06:32:46;;;;;;;8.28;3.83;;;;;;;23.41;69.68;100396.17;1725740;82;21288;-82
2022/06/04 06:35:51;;;;;;;6.55;3.80;;;;;;;23.49;68.34;100396.29;1736719;82;21201;-81
2022/06/04 06:38:56;;;;;;;5.47;3.17;;;;;;;23.51;67.72;100392.67;1723077;82;21193;-81
2022/06/04 06:42:02;;;;;;;7.53;4.08;;;;;;;23.54;67.66;100378.76;1715429;82;21240;-81
2022/06/04 06:45:13;;;;;;;6.25;4.00;;;;;;;23.56;68.30;100394.69;1735026;81;21307;-81
2022/06/04 06:48:20;;;;;;;9.75;3.67;;;;;;;23.64;67.62;100389.52;1725023;82;21255;-81
2022/06/04 06:51:38;;;;;;;7.20;4.17;;;;;;;23.69;67.16;100395.17;1733977;82;21232;-81
2022/06/04 06:54:44;;;;;;;4.47;3.05;;;;;;;23.75;67.29;100392.43;1723948;82;21181;-83
2022/06/04 06:57:49;;;;;;;7.42;3.70;;;;;;;23.76;67.16;100402.48;1710599;82;21173;-81
2022/06/04 07:00:56;;;;;;;6.22;3.52;;;;;;;23.71;66.86;100398.56;1741086;81;21216;-82
2022/06/04 07:04:04;;;;;;;9.18;3.72;;;;;;;23.69;67.59;100400.75;1720462;82;21257;-81
2022/06/04 07:07:10;;;;;;;8.28;3.40;;;;;;;23.73;67.26;100391.86;1740162;82;21185;-82
2022/06/04 07:10:17;;;;;;;12.60;4.50;;;;;;;23.79;67.17;100395.84;1739494;81;21545;-82
2022/06/04 07:13:24;;;;;;;8.35;3.77;;;;;;;23.84;67.27;100396.45;1726962;82;21709;-82
2022/06/04 07:16:33;;;;;;;10.20;3.98;;;;;;;23.89;67.34;100390.92;1708311;82;21135;-82
2022/06/04 07:19:57;;;;;;;8.05;3.45;;;;;;;23.91;66.31;100388.73;1734428;82;21758;-83
2022/06/04 07:23:02;;;;;;;6.17;3.15;;;;;;;23.86;66.71;100387.27;1731387;82;21172;-82
2022/06/04 07:26:11;;;;;;;4.90;3.60;;;;;;;23.88;67.04;100386.44;1729661;82;21178;-83
2022/06/04 07:29:17;;;;;;;11.68;3.45;;;;;;;23.98;66.45;100393.53;1731156;82;21561;-83
2022/06/04 07:32:23;;;;;;;4.10;3.33;;;;;;;24.08;66.89;100389.44;1731260;82;21204;-81
2022/06/04 07:35:29;;;;;;;5.78;3.08;;;;;;;24.17;66.06;100389.26;1792827;79;21175;-81
2022/06/04 07:38:35;;;;;;;8.45;3.60;;;;;;;24.24;66.87;100382.08;1779731;79;21185;-81
2022/06/04 07:41:51;;;;;;;10.13;3.27;;;;;;;24.41;65.45;100387.55;1778130;79;21188;-81
2022/06/04 07:44:57;;;;;;;7.20;3.35;;;;;;;24.55;65.47;100388.80;1746032;81;21430;-81
2022/06/04 07:48:05;;;;;;;7.60;3.47;;;;;;;24.71;64.82;100392.02;1720623;82;21177;-81
2022/06/04 07:51:11;;;;;;;5.90;3.27;;;;;;;24.92;64.78;100396.35;1706960;82;21217;-81
2022/06/04 07:54:18;;;;;;;5.75;3.50;;;;;;;25.08;64.80;100391.72;1738723;81;21194;-82
2022/06/04 07:57:24;;;;;;;5.17;3.33;;;;;;;25.19;62.70;100405.52;1737889;81;21181;-82
2022/06/04 08:00:31;;;;;;;11.38;4.00;;;;;;;25.21;62.79;100392.64;1741674;81;21177;-82
2022/06/04 08:03:37;;;;;;;6.87;3.22;;;;;;;25.21;63.38;100392.08;1742404;81;21201;-81
2022/06/04 08:06:42;;;;;;;4.67;3.17;;;;;;;25.30;62.58;100396.61;1709504;82;21201;-82
2022/06/04 08:09:49;;;;;;;8.68;2.85;;;;;;;25.39;61.45;100394.15;1710915;82;22232;-82
2022/06/04 08:12:57;;;;;;;8.28;3.10;;;;;;;25.44;62.13;100401.17;1765150;79;21169;-81
2022/06/04 08:16:05;;;;;;;8.83;3.70;;;;;;;25.50;60.61;100394.47;1760177;81;21228;-81
2022/06/04 08:19:11;;;;;;;6.80;3.55;;;;;;;25.45;61.18;100402.84;1782716;79;21760;-81
2022/06/04 08:22:18;;;;;;;12.10;3.42;;;;;;;25.36;61.41;100393.28;1786076;79;21190;-81
2022/06/04 08:25:23;;;;;;;4.58;3.00;;;;;;;25.30;61.51;100401.38;1771587;79;21221;-81
2022/06/04 08:28:30;;;;;;;8.00;3.72;;;;;;;25.30;61.64;100385.98;1768869;81;21173;-82
2022/06/04 08:31:38;;;;;;;6.08;3.25;;;;;;;25.24;62.16;100376.72;1779558;79;21240;-81
2022/06/04 08:34:46;;;;;;;9.30;4.00;;;;;;;25.22;62.04;100379.80;1759370;79;21272;-81
2022/06/04 08:37:51;;;;;;;6.05;3.22;;;;;;;25.17;62.15;100376.11;1764572;80;21219;-81
2022/06/04 08:41:04;;;;;;;6.40;3.12;;;;;;;25.20;62.19;100372.22;1706242;83;21227;-81
2022/06/04 08:44:14;;;;;;;6.90;3.62;;;;;;;25.34;61.85;100373.13;1706192;82;21187;-81
2022/06/04 08:47:42;;;;;;;7.33;3.85;;;;;;;25.33;61.22;100381.25;1727379;83;21145;-81
2022/06/04 08:50:48;;;;;;;7.72;3.17;;;;;;;25.23;61.92;100384.28;1662364;86;21371;-81
2022/06/04 08:53:56;;;;;;;4.03;3.30;;;;;;;25.22;61.64;100377.00;1713144;82;21297;-82
2022/06/04 09:00:45;;;;;;;4.80;3.47;;;;;;;25.31;59.88;100388.50;1695261;83;21188;-81
2022/06/04 09:04:00;;;;;;;5.85;2.92;;;;;;;25.27;59.63;100385.14;1717502;83;21811;-81
2022/06/04 09:07:22;;;;;;;9.33;3.58;;;;;;;25.30;60.50;100381.78;1709703;83;21236;-81
2022/06/04 09:10:34;;;;;;;9.10;3.17;;;;;;;25.39;59.97;100385.75;1706284;83;21239;-81
2022/06/04 09:13:47;;;;;;;7.95;3.77;;;;;;;25.43;59.52;100385.49;1715511;83;21208;-81
2022/06/04 09:17:09;;;;;;;7.17;3.05;;;;;;;25.45;58.85;100383.25;1705747;84;21193;-81
2022/06/04 09:20:42;;;;;;;3.67;2.83;;;;;;;25.45;58.50;100374.31;1683678;83;21224;-81
2022/06/04 09:23:55;;;;;;;6.03;3.72;;;;;;;25.45;58.68;100386.05;1735501;82;21204;-81
2022/06/04 09:27:26;;;;;;;7.12;3.42;;;;;;;25.40;58.31;100372.86;1704690;83;21370;-81
2022/06/04 09:31:01;;;;;;;7.42;3.10;;;;;;;25.40;58.31;100366.42;1702115;84;21812;-81
2022/06/04 09:34:16;;;;;;;6.03;2.67;;;;;;;25.51;57.80;100362.58;1704574;83;21751;-81
2022/06/04 09:37:22;;;;;;;5.45;2.83;;;;;;;25.66;57.21;100364.59;1705499;84;21310;-81
2022/06/04 09:40:38;;;;;;;8.80;3.50;;;;;;;25.70;57.55;100362.92;1711374;83;21318;-81
2022/06/04 09:43:37;;;;;;;14.58;3.62;;;;;;;25.71;56.71;100371.04;1726794;82;21176;-81
2022/06/04 09:46:47;;;;;;;6.15;2.70;;;;;;;25.70;57.22;100356.75;1694437;83;21736;-81
2022/06/04 09:50:06;;;;;;;4.60;2.77;;;;;;;25.68;55.82;100365.98;1707433;82;21548;-81
2022/06/04 09:53:31;;;;;;;11.05;2.47;;;;;;;25.71;55.31;100365.44;1721147;82;21149;-81
2022/06/04 09:56:49;;;;;;;8.43;3.10;;;;;;;25.82;56.49;100359.89;1699283;83;21347;-81
2022/06/04 10:00:02;;;;;;;8.18;2.70;;;;;;;26.05;56.17;100344.53;1717975;82;21192;-81
2022/06/04 10:03:19;;;;;;;5.60;2.77;;;;;;;26.21;55.34;100359.70;1687155;83;21206;-81
2022/06/04 10:06:24;;;;;;;4.72;3.10;;;;;;;26.15;53.47;100350.98;1687262;83;21267;-81
2022/06/04 10:16:32;;;;;;;4.67;2.20;;;;;;;26.15;52.62;100334.16;1714441;82;21204;-81
2022/06/04 10:19:37;;;;;;;10.10;2.33;;;;;;;26.10;51.85;100331.36;1682975;83;21217;-81
2022/06/04 10:22:43;;;;;;;6.58;2.62;;;;;;;26.16;52.67;100329.39;1708829;82;21202;-81
2022/06/04 10:26:07;;;;;;;3.75;2.60;;;;;;;26.23;51.09;100339.22;1682638;85;21284;-81
2022/06/04 10:29:47;;;;;;;6.47;2.42;;;;;;;26.21;52.06;100328.86;1710914;82;21192;-81
2022/06/04 10:33:06;;;;;;;2.60;2.40;;;;;;;26.29;52.82;100329.41;1691134;84;21231;-81
2022/06/04 10:36:49;;;;;;;4.25;2.90;;;;;;;26.30;50.87;100324.08;1702533;82;21320;-81
2022/06/04 10:40:23;;;;;;;4.50;2.58;;;;;;;26.30;51.95;100321.27;1745121;81;21551;-81
2022/06/04 10:43:55;;;;;;;5.10;2.70;;;;;;;26.25;51.26;100325.78;1736226;81;21184;-81
2022/06/04 10:47:30;;;;;;;5.75;2.95;;;;;;;26.19;51.41;100319.88;1730761;81;21196;-81
2022/06/04 10:54:54;;;;;;;3.37;2.67;;;;;;;26.27;52.31;100314.28;1721419;82;21169;-81
2022/06/04 10:58:09;;;;;;;6.90;2.52;;;;;;;26.36;50.80;100311.77;1711763;82;21184;-81
2022/06/04 11:01:19;;;;;;;11.03;2.70;;;;;;;26.32;50.58;100305.03;1689899;83;21313;-81
2022/06/04 11:04:53;;;;;;;6.78;2.22;;;;;;;26.36;50.00;100306.98;1730679;81;21195;-81
2022/06/04 11:08:06;;;;;;;6.92;2.40;;;;;;;26.31;48.37;100303.35;1731911;82;21764;-81
2022/06/04 11:11:34;;;;;;;4.65;2.50;;;;;;;26.30;50.25;100293.23;1722705;82;21147;-81
2022/06/04 11:14:50;;;;;;;5.65;2.10;;;;;;;26.42;51.28;100289.59;1728170;81;21176;-81
2022/06/04 11:18:00;;;;;;;5.35;2.30;;;;;;;26.54;49.21;100290.19;1741213;82;21283;-81
2022/06/04 11:21:34;;;;;;;4.70;2.20;;;;;;;26.50;48.51;100289.91;1716073;83;21717;-80
2022/06/04 11:24:51;;;;;;;7.30;2.52;;;;;;;26.50;48.51;100289.91;1735549;82;21310;-81
2022/06/04 11:28:02;;;;;;;2.47;1.82;;;;;;;26.56;48.65;100293.53;1738491;82;21173;-81
2022/06/04 11:31:32;;;;;;;5.37;1.70;;;;;;;26.60;47.99;100297.45;1739635;82;21212;-81
2022/06/04 11:34:43;;;;;;;3.67;1.70;;;;;;;26.62;47.79;100288.75;1736622;82;21208;-81
2022/06/04 11:37:53;;;;;;;6.80;2.05;;;;;;;26.67;44.88;100290.14;1716322;83;21238;-81
2022/06/04 11:41:12;;;;;;;4.65;2.00;;;;;;;26.66;46.54;100273.04;1712494;83;21806;-81
2022/06/04 11:44:31;;;;;;;5.83;2.42;;;;;;;26.68;46.24;100274.45;1734787;82;21197;-81
2022/06/04 11:47:56;;;;;;;5.30;2.27;;;;;;;26.69;47.40;100273.31;1634831;83;21265;-81
2022/06/04 11:51:19;;;;;;;2.77;2.00;;;;;;;26.65;46.14;100267.99;1701824;83;21537;-81
2022/06/04 11:54:46;;;;;;;3.25;1.70;;;;;;;26.65;45.21;100262.38;1711986;83;21374;-81
2022/06/04 11:58:21;;;;;;;6.83;2.02;;;;;;;26.67;45.57;100269.94;1710011;83;21815;-81
2022/06/04 12:01:43;;;;;;;4.12;1.80;;;;;;;26.65;44.22;100265.75;1723428;83;21260;-81
2022/06/04 12:05:00;;;;;;;5.83;2.25;;;;;;;26.69;45.01;100255.08;1708341;84;21185;-81
2022/06/04 12:08:04;;;;;;;4.30;2.00;;;;;;;26.78;46.18;100253.94;1736584;82;21177;-81
2022/06/04 12:11:40;;;;;;;5.67;2.17;;;;;;;26.69;46.41;100250.87;1737003;82;21741;-81
2022/06/04 12:14:54;;;;;;;3.30;1.72;;;;;;;26.60;45.53;100252.58;1703409;83;21835;-81
2022/06/04 12:18:27;;;;;;;8.20;2.00;;;;;;;26.63;44.62;100249.75;1707173;84;22523;-80
2022/06/04 12:25:10;;;;;;;2.80;1.90;;;;;;;26.68;46.62;100245.56;1707145;83;21268;-81
2022/06/04 12:28:39;;;;;;;5.80;2.27;;;;;;;26.69;46.49;100254.25;1711416;83;21303;-81
2022/06/04 12:31:45;;;;;;;6.15;2.12;;;;;;;26.71;45.79;100237.95;1711663;83;21245;-81
2022/06/04 12:34:51;;;;;;;3.30;1.80;;;;;;;26.69;46.73;100238.25;1711584;83;21201;-81
2022/06/04 12:38:06;;;;;;;8.58;1.72;;;;;;;26.75;46.61;100238.50;1729237;82;21811;-81
2022/06/04 12:41:24;;;;;;;3.67;1.72;;;;;;;26.75;46.61;100238.50;1662570;86;21258;-81
2022/06/04 12:44:41;;;;;;;3.22;1.75;;;;;;;26.74;46.12;100227.58;1692899;83;21220;-81
2022/06/04 12:47:47;;;;;;;2.70;1.85;;;;;;;26.75;45.30;100223.64;1707074;83;21177;-80
2022/06/04 12:50:39;;;;;;;8.53;1.97;;;;;;;26.65;45.69;100218.07;1709552;83;21138;-81
2022/06/04 12:53:59;;;;;;;3.02;1.82;;;;;;;26.62;46.40;100218.06;1714329;83;21147;-80
2022/06/04 12:57:48;;;;;;;2.52;1.62;;;;;;;26.64;46.53;100207.41;1714094;83;21258;-81
2022/06/04 13:01:02;;;;;;;3.17;1.55;;;;;;;26.64;46.53;100207.41;1711885;83;21743;-82
2022/06/04 13:04:26;;;;;;;7.60;1.45;;;;;;;26.66;46.21;100207.95;1726636;82;21181;-82
2022/06/04 13:07:33;;;;;;;5.90;1.70;;;;;;;26.64;45.88;100207.98;1684813;83;21183;-82
2022/06/04 13:11:07;;;;;;;9.35;1.98;;;;;;;26.64;46.22;100203.20;1689958;83;21815;-82
2022/06/04 13:14:35;;;;;;;5.05;2.10;;;;;;;26.68;46.39;100193.09;1693442;83;21183;-81
2022/06/04 13:17:52;;;;;;;5.42;1.62;;;;;;;26.69;46.76;100193.94;1698031;82;21213;-81
2022/06/04 13:21:01;;;;;;;5.20;1.52;;;;;;;26.72;47.03;100193.34;1690124;85;21246;-81
2022/06/04 13:24:04;;;;;;;5.87;1.92;;;;;;;26.73;46.59;100194.48;1691408;85;21714;-81
2022/06/04 13:27:11;;;;;;;5.78;1.82;;;;;;;26.80;45.72;100187.71;1691713;85;21230;-81
2022/06/04 13:30:06;;;;;;;2.35;1.70;;;;;;;26.80;45.80;100184.91;1681500;83;21214;-81
2022/06/04 13:33:22;;;;;;;2.92;2.08;;;;;;;26.80;46.18;100187.71;1691305;82;21189;-81
2022/06/04 13:36:31;;;;;;;2.40;1.80;;;;;;;26.78;46.23;100185.77;1663958;86;21713;-81
2022/06/04 13:39:36;;;;;;;4.42;2.12;;;;;;;26.66;46.21;100189.72;1697716;82;21217;-81
2022/06/04 13:42:45;;;;;;;7.95;1.80;;;;;;;26.57;46.93;100177.41;1771341;79;21192;-81
2022/06/04 13:45:52;;;;;;;6.42;2.37;;;;;;;26.54;46.85;100179.41;1804553;79;21161;-81
2022/06/04 13:49:12;;;;;;;3.10;1.60;;;;;;;26.50;46.58;100180.53;1706471;81;21201;-81
2022/06/04 13:52:25;;;;;;;6.17;2.17;;;;;;;26.47;47.28;100178.84;1716202;82;21238;-81
2022/06/04 13:55:40;;;;;;;2.30;1.90;;;;;;;26.45;47.35;100165.69;1797905;79;21217;-81
2022/06/04 13:58:51;;;;;;;10.08;1.82;;;;;;;26.43;47.36;100165.95;1732024;82;21209;-81
2022/06/04 14:01:58;;;;;;;4.17;2.02;;;;;;;26.40;47.36;100167.08;1769751;79;21220;-81
2022/06/04 14:08:34;;;;;;;4.58;2.05;;;;;;;26.36;47.99;100167.36;1798265;79;21181;-80
2022/06/04 14:12:12;;;;;;;5.10;2.37;;;;;;;26.33;47.75;100168.75;1773762;79;21153;-80
2022/06/04 14:15:42;;;;;;;4.08;2.30;;;;;;;26.32;47.57;100160.64;1762221;79;21772;-81
2022/06/04 14:19:10;;;;;;;2.37;2.02;;;;;;;26.31;48.20;100161.77;1801529;79;21165;-81
2022/06/04 14:22:35;;;;;;;5.78;2.10;;;;;;;26.32;48.34;100153.63;1799201;79;21213;-81
2022/06/04 14:26:00;;;;;;;5.35;2.05;;;;;;;26.33;47.66;100142.13;1798730;79;21176;-81
2022/06/04 14:29:11;;;;;;;3.83;2.20;;;;;;;26.30;47.94;100151.12;1800901;79;21808;-81
2022/06/04 14:32:24;;;;;;;4.37;2.05;;;;;;;26.27;48.19;100143.84;1759799;79;21173;-81
2022/06/04 14:35:45;;;;;;;8.40;2.35;;;;;;;26.25;48.14;100154.78;1757157;81;21198;-81
2022/06/04 14:38:52;;;;;;;4.08;2.10;;;;;;;26.21;48.06;100156.47;1768953;81;21188;-81
2022/06/04 14:42:40;;;;;;;6.12;2.22;;;;;;;26.16;47.93;100138.27;1779909;79;21242;-81
2022/06/04 14:45:49;;;;;;;7.95;2.55;;;;;;;26.12;48.29;100134.34;1780928;79;21153;-81
2022/06/04 14:49:32;;;;;;;4.97;2.58;;;;;;;26.10;48.30;100137.97;1787048;79;21205;-81
2022/06/04 14:52:46;;;;;;;16.40;2.60;;;;;;;26.07;48.06;100129.31;1789667;79;21811;-81
2022/06/04 14:56:02;;;;;;;7.28;2.20;;;;;;;26.02;48.26;100133.50;1791406;79;21237;-81
2022/06/04 14:59:24;;;;;;;6.25;2.52;;;;;;;25.97;48.21;100141.34;1770143;79;21303;-81
2022/06/04 15:02:57;;;;;;;8.50;2.40;;;;;;;25.92;48.40;100127.34;1768264;79;21749;-81
2022/06/04 15:06:12;;;;;;;13.03;2.05;;;;;;;25.88;48.75;100127.66;1706660;82;21158;-81
2022/06/04 15:09:57;;;;;;;10.80;2.55;;;;;;;25.88;48.83;100133.27;1769751;81;22442;-81
2022/06/04 15:13:31;;;;;;;3.15;2.27;;;;;;;25.86;48.28;100127.09;1782229;80;21196;-81
2022/06/04 15:17:04;;;;;;;3.45;2.10;;;;;;;25.80;48.40;100126.26;1772566;79;21195;-82
2022/06/04 15:20:33;;;;;;;5.35;2.20;;;;;;;25.74;48.59;100124.00;1772187;79;21260;-82